createdAt,value
2022-08-25T00:03:15.024Z,24.20
2022-08-25T00:10:15.902Z,24.00
2022-08-25T00:17:16.878Z,23.90
2022-08-25T00:24:19.863Z,23.80
2022-08-25T00:31:23.423Z,23.60
2022-08-25T00:38:40.204Z,23.40
2022-08-25T00:45:40.609Z,23.20
2022-08-25T00:52:48.041Z,23.00
2022-08-25T00:59:49.150Z,22.80
2022-08-25T01:06:51.832Z,22.70
2022-08-25T01:13:55.396Z,22.50
2022-08-25T01:20:57.942Z,22.40
2022-08-25T01:27:58.692Z,22.30
2022-08-25T01:34:59.154Z,22.10
2022-08-25T01:42:49.547Z,22.00
2022-08-25T01:49:50.370Z,21.80
2022-08-25T01:56:51.188Z,21.70
2022-08-25T02:03:54.481Z,21.60
2022-08-25T02:10:55.680Z,21.50
2022-08-25T02:17:56.037Z,21.30
2022-08-25T02:24:56.660Z,21.10
2022-08-25T02:31:57.241Z,21.00
2022-08-25T02:38:58.127Z,20.90
2022-08-25T02:45:59.257Z,20.70
2022-08-25T02:52:59.807Z,20.60
2022-08-25T03:00:00.438Z,20.50
2022-08-25T03:07:00.598Z,20.40
2022-08-25T03:14:00.936Z,20.30
2022-08-25T03:21:01.391Z,20.30
2022-08-25T03:28:02.001Z,20.20
2022-08-25T03:35:02.377Z,20.10
2022-08-25T03:42:04.440Z,20.10
2022-08-25T03:49:07.453Z,19.90
2022-08-25T03:56:07.960Z,19.80
2022-08-25T04:03:08.623Z,19.80
2022-08-25T04:10:10.821Z,19.70
2022-08-25T04:17:11.594Z,19.70
2022-08-25T04:24:13.549Z,19.70
2022-08-25T04:31:16.240Z,19.60
2022-08-25T04:38:17.094Z,19.50
2022-08-25T04:45:18.418Z,19.40
2022-08-25T04:52:19.479Z,19.40
2022-08-25T04:59:20.340Z,19.20
2022-08-25T05:06:20.855Z,19.20
2022-08-25T05:13:22.063Z,19.20
2022-08-25T05:20:23.324Z,19.20
2022-08-25T05:27:23.653Z,19.30
2022-08-25T05:34:24.918Z,19.40
2022-08-25T05:41:28.336Z,19.60
2022-08-25T05:48:29.500Z,19.80
2022-08-25T05:55:30.086Z,20.10
2022-08-25T06:02:46.193Z,20.40
2022-08-25T06:09:48.962Z,20.70
2022-08-25T06:16:51.649Z,21.00
2022-08-25T06:23:52.774Z,21.40
2022-08-25T06:31:00.168Z,21.70
2022-08-25T06:38:00.971Z,22.00
2022-08-25T06:45:01.681Z,22.30
2022-08-25T06:52:02.781Z,22.60
2022-08-25T06:59:07.870Z,22.80
2022-08-25T07:06:10.743Z,23.10
2022-08-25T07:13:11.141Z,23.30
2022-08-25T07:20:13.651Z,23.60
2022-08-25T07:27:15.362Z,23.90
2022-08-25T07:34:35.161Z,24.10
2022-08-25T07:41:41.616Z,24.30
2022-08-25T07:48:42.617Z,24.60
2022-08-25T07:55:45.577Z,24.90
2022-08-25T08:02:47.881Z,25.20
2022-08-25T08:09:56.050Z,25.40
2022-08-25T08:17:11.243Z,25.60
2022-08-25T08:24:31.250Z,25.80
2022-08-25T08:31:32.580Z,26.10
2022-08-25T08:38:35.345Z,26.30
2022-08-25T08:45:45.674Z,26.60
2022-08-25T08:52:54.099Z,26.70
2022-08-25T08:59:59.806Z,26.90
2022-08-25T09:07:02.728Z,27.20
2022-08-25T09:14:20.716Z,27.40
2022-08-25T09:21:37.576Z,27.60
2022-08-25T09:28:46.796Z,27.80
2022-08-25T09:35:54.229Z,28.00
2022-08-25T09:43:02.497Z,28.30
2022-08-25T09:50:05.315Z,28.50
2022-08-25T09:57:08.567Z,28.70
2022-08-25T10:04:18.965Z,28.90
2022-08-25T10:11:43.542Z,29.20
2022-08-25T10:18:44.190Z,29.50
2022-08-25T10:25:57.796Z,29.50
2022-08-25T10:33:15.850Z,29.50
2022-08-25T10:40:41.241Z,29.60
2022-08-25T10:47:47.551Z,29.70
2022-08-25T10:55:07.208Z,29.90
2022-08-25T11:02:46.723Z,29.90
2022-08-25T11:09:51.070Z,30.20
2022-08-25T11:16:59.116Z,30.40
2022-08-25T11:24:14.857Z,30.50
2022-08-25T11:31:17.739Z,30.80
2022-08-25T11:39:00.298Z,30.80
2022-08-25T11:46:35.002Z,31.10
2022-08-25T11:53:42.230Z,31.20
2022-08-25T12:00:44.075Z,31.30
2022-08-25T12:07:51.999Z,31.40
2022-08-25T12:14:52.586Z,31.70
2022-08-25T12:21:57.360Z,31.90
2022-08-25T12:29:22.532Z,32.10
2022-08-25T12:36:33.246Z,32.30
2022-08-25T12:43:38.038Z,32.50
2022-08-25T12:50:41.816Z,32.80
2022-08-25T12:57:50.238Z,33.00
2022-08-25T13:05:41.088Z,33.10
2022-08-25T13:12:51.078Z,33.30
2022-08-25T13:19:51.436Z,33.40
2022-08-25T13:27:00.981Z,33.50
2022-08-25T13:34:05.331Z,33.50
2022-08-25T13:41:09.263Z,33.70
2022-08-25T13:48:22.619Z,33.90
2022-08-25T13:55:38.218Z,34.20
2022-08-25T14:02:57.083Z,34.40
2022-08-25T14:10:08.034Z,34.80
2022-08-25T14:17:22.300Z,34.90
2022-08-25T14:24:40.686Z,35.20
2022-08-25T14:31:44.786Z,35.40
2022-08-25T14:38:45.984Z,35.70
2022-08-25T14:45:54.787Z,35.70
2022-08-25T14:52:55.349Z,35.90
2022-08-25T15:00:00.616Z,35.80
2022-08-25T15:07:02.841Z,35.70
2022-08-25T15:14:03.578Z,35.90
2022-08-25T15:21:04.044Z,35.80
2022-08-25T15:28:09.773Z,35.80
2022-08-25T15:35:11.019Z,36.00
2022-08-25T15:42:30.176Z,36.20
2022-08-25T15:49:31.391Z,36.30
2022-08-25T15:56:32.169Z,36.50
2022-08-25T16:03:32.925Z,36.30
2022-08-25T16:10:36.287Z,36.20
2022-08-25T16:17:37.160Z,36.10
2022-08-25T16:24:44.857Z,35.90
2022-08-25T16:31:53.518Z,35.80
2022-08-25T16:38:57.582Z,35.50
2022-08-25T16:46:03.894Z,35.30
2022-08-25T16:53:23.795Z,35.00
2022-08-25T17:00:28.164Z,34.80
2022-08-25T17:07:29.513Z,34.80
2022-08-25T17:14:32.203Z,34.50
2022-08-25T17:21:35.972Z,34.40
2022-08-25T17:28:37.138Z,34.10
2022-08-25T17:35:42.890Z,33.80
2022-08-25T17:42:43.497Z,33.50
2022-08-25T17:49:43.911Z,33.20
2022-08-25T17:56:44.524Z,33.00
2022-08-25T18:03:46.748Z,32.70
2022-08-25T18:10:47.415Z,32.40
2022-08-25T18:17:47.795Z,32.10
2022-08-25T18:24:48.368Z,31.90
2022-08-25T18:31:49.134Z,31.70
2022-08-25T18:39:09.240Z,31.30
2022-08-25T18:46:11.143Z,31.10
2022-08-25T18:53:12.676Z,30.70
2022-08-25T19:00:17.554Z,30.40
2022-08-25T19:07:19.799Z,30.00
2022-08-25T19:14:20.010Z,29.70
2022-08-25T19:21:23.599Z,29.30
2022-08-25T19:28:24.491Z,28.90
2022-08-25T19:35:38.363Z,28.50
2022-08-25T19:42:40.552Z,28.10
2022-08-25T19:49:41.689Z,27.70
2022-08-25T19:56:53.868Z,27.40
2022-08-25T20:03:56.968Z,27.10
2022-08-25T20:10:58.223Z,26.90
2022-08-25T20:17:59.795Z,26.70
2022-08-25T20:25:13.461Z,26.40
2022-08-25T20:32:15.128Z,26.30
2022-08-25T20:39:17.302Z,26.10
2022-08-25T20:46:19.115Z,25.90
2022-08-25T20:53:19.634Z,25.70
2022-08-25T21:00:25.577Z,25.60
2022-08-25T21:07:27.092Z,25.50
2022-08-25T21:14:29.383Z,25.40
2022-08-25T21:21:30.229Z,25.20
2022-08-25T21:28:30.749Z,25.10
2022-08-25T21:35:31.366Z,25.00
2022-08-25T21:42:32.080Z,24.80
2022-08-25T21:49:37.270Z,24.70
2022-08-25T21:56:49.395Z,24.60
2022-08-25T22:03:49.996Z,24.40
2022-08-25T22:10:50.738Z,24.30
2022-08-25T22:17:51.046Z,24.20
2022-08-25T22:24:52.647Z,24.10
2022-08-25T22:31:58.615Z,24.10
2022-08-25T22:39:05.624Z,24.00
2022-08-25T22:46:08.223Z,23.90
2022-08-25T22:53:13.765Z,23.90
2022-08-25T23:00:15.264Z,23.80
2022-08-25T23:07:16.448Z,23.80
2022-08-25T23:14:16.756Z,23.70
2022-08-25T23:21:37.944Z,23.70
2022-08-25T23:28:42.984Z,23.60
2022-08-25T23:35:43.316Z,23.60
2022-08-25T23:42:43.599Z,23.50
2022-08-25T23:49:48.473Z,23.20
2022-08-25T23:56:52.021Z,23.20
